sensor_id;sensor_type;location;lat;lon;timestamp;temperature;humidity
20829;DHT22;10575;50.124;8.582;2022-12-07T00:02:17;5.10;99.90
20829;DHT22;10575;50.124;8.582;2022-12-07T00:04:43;5.10;99.90
20829;DHT22;10575;50.124;8.582;2022-12-07T00:07:08;5.10;99.90
20829;DHT22;10575;50.124;8.582;2022-12-07T00:09:34;5.10;99.90
20829;DHT22;10575;50.124;8.582;2022-12-07T00:11:59;5.10;99.90
20829;DHT22;10575;50.124;8.582;2022-12-07T00:14:25;5.20;99.90
20829;DHT22;10575;50.124;8.582;2022-12-07T00:16:51;5.20;99.90
20829;DHT22;10575;50.124;8.582;2022-12-07T00:19:17;5.20;99.90
20829;DHT22;10575;50.124;8.582;2022-12-07T00:21:43;5.10;99.90
20829;DHT22;10575;50.124;8.582;2022-12-07T00:24:09;5.20;99.90
20829;DHT22;10575;50.124;8.582;2022-12-07T00:26:37;5.10;99.90
20829;DHT22;10575;50.124;8.582;2022-12-07T00:29:06;5.10;99.90
20829;DHT22;10575;50.124;8.582;2022-12-07T00:31:36;5.10;99.90
20829;DHT22;10575;50.124;8.582;2022-12-07T00:34:05;5.10;99.90
20829;DHT22;10575;50.124;8.582;2022-12-07T00:36:31;5.10;99.90
20829;DHT22;10575;50.124;8.582;2022-12-07T00:39:00;5.10;99.90
20829;DHT22;10575;50.124;8.582;2022-12-07T00:41:27;5.20;99.90
20829;DHT22;10575;50.124;8.582;2022-12-07T00:43:53;5.20;99.90
20829;DHT22;10575;50.124;8.582;2022-12-07T00:46:20;5.10;99.90
20829;DHT22;10575;50.124;8.582;2022-12-07T00:48:46;5.00;99.90
20829;DHT22;10575;50.124;8.582;2022-12-07T00:51:13;5.00;99.90
20829;DHT22;10575;50.124;8.582;2022-12-07T00:53:39;5.10;99.90
20829;DHT22;10575;50.124;8.582;2022-12-07T00:56:11;5.10;99.90
20829;DHT22;10575;50.124;8.582;2022-12-07T00:58:36;5.10;99.90
20829;DHT22;10575;50.124;8.582;2022-12-07T01:01:03;5.10;99.90
20829;DHT22;10575;50.124;8.582;2022-12-07T01:03:30;5.10;99.90
20829;DHT22;10575;50.124;8.582;2022-12-07T01:05:56;5.10;99.90
20829;DHT22;10575;50.124;8.582;2022-12-07T01:08:23;5.10;99.90
20829;DHT22;10575;50.124;8.582;2022-12-07T01:10:49;5.10;99.90
20829;DHT22;10575;50.124;8.582;2022-12-07T01:13:15;5.00;99.90
20829;DHT22;10575;50.124;8.582;2022-12-07T01:15:41;4.90;99.90
20829;DHT22;10575;50.124;8.582;2022-12-07T01:18:07;5.00;99.90
20829;DHT22;10575;50.124;8.582;2022-12-07T01:20:33;5.00;99.90
20829;DHT22;10575;50.124;8.582;2022-12-07T01:22:58;5.00;99.90
20829;DHT22;10575;50.124;8.582;2022-12-07T01:25:24;5.00;99.90
20829;DHT22;10575;50.124;8.582;2022-12-07T01:27:49;4.90;99.90
20829;DHT22;10575;50.124;8.582;2022-12-07T01:30:15;4.80;99.90
20829;DHT22;10575;50.124;8.582;2022-12-07T01:32:40;4.80;99.90
20829;DHT22;10575;50.124;8.582;2022-12-07T01:35:06;4.70;99.90
20829;DHT22;10575;50.124;8.582;2022-12-07T01:37:36;4.70;99.90
20829;DHT22;10575;50.124;8.582;2022-12-07T01:40:03;4.80;99.90
20829;DHT22;10575;50.124;8.582;2022-12-07T01:42:29;4.70;99.90
20829;DHT22;10575;50.124;8.582;2022-12-07T01:47:55;4.70;99.90
20829;DHT22;10575;50.124;8.582;2022-12-07T01:50:24;4.60;99.90
20829;DHT22;10575;50.124;8.582;2022-12-07T01:52:52;4.50;99.90
20829;DHT22;10575;50.124;8.582;2022-12-07T01:55:19;4.40;99.90
20829;DHT22;10575;50.124;8.582;2022-12-07T01:57:48;4.40;99.90
20829;DHT22;10575;50.124;8.582;2022-12-07T02:00:15;4.40;99.90
20829;DHT22;10575;50.124;8.582;2022-12-07T02:02:51;4.50;99.90
20829;DHT22;10575;50.124;8.582;2022-12-07T02:05:18;4.50;99.90
20829;DHT22;10575;50.124;8.582;2022-12-07T02:07:46;4.50;99.90
20829;DHT22;10575;50.124;8.582;2022-12-07T02:12:39;4.60;99.90
20829;DHT22;10575;50.124;8.582;2022-12-07T02:15:05;4.60;99.90
20829;DHT22;10575;50.124;8.582;2022-12-07T02:18:12;4.70;99.90
20829;DHT22;10575;50.124;8.582;2022-12-07T02:20:57;4.70;99.90
20829;DHT22;10575;50.124;8.582;2022-12-07T02:23:58;4.70;99.90
20829;DHT22;10575;50.124;8.582;2022-12-07T02:29:47;4.70;99.90
20829;DHT22;10575;50.124;8.582;2022-12-07T02:33:07;4.80;99.90
20829;DHT22;10575;50.124;8.582;2022-12-07T02:35:43;4.90;99.90
20829;DHT22;10575;50.124;8.582;2022-12-07T02:38:30;4.90;99.90
20829;DHT22;10575;50.124;8.582;2022-12-07T02:41:20;5.00;99.90
20829;DHT22;10575;50.124;8.582;2022-12-07T02:43:56;5.10;99.90
20829;DHT22;10575;50.124;8.582;2022-12-07T02:46:27;5.10;99.90
20829;DHT22;10575;50.124;8.582;2022-12-07T02:48:54;5.10;99.90
20829;DHT22;10575;50.124;8.582;2022-12-07T02:51:22;5.10;99.90
20829;DHT22;10575;50.124;8.582;2022-12-07T02:53:47;5.10;99.90
20829;DHT22;10575;50.124;8.582;2022-12-07T02:56:26;5.20;99.90
20829;DHT22;10575;50.124;8.582;2022-12-07T02:59:07;5.20;99.90
20829;DHT22;10575;50.124;8.582;2022-12-07T03:01:49;5.20;99.90
20829;DHT22;10575;50.124;8.582;2022-12-07T03:07:37;5.20;99.90
20829;DHT22;10575;50.124;8.582;2022-12-07T03:10:43;5.20;99.90
20829;DHT22;10575;50.124;8.582;2022-12-07T03:14:08;5.10;99.90
20829;DHT22;10575;50.124;8.582;2022-12-07T03:16:14;5.10;99.90
20829;DHT22;10575;50.124;8.582;2022-12-07T03:18:57;5.10;99.90
20829;DHT22;10575;50.124;8.582;2022-12-07T03:21:27;5.10;99.90
20829;DHT22;10575;50.124;8.582;2022-12-07T03:23:56;5.10;99.90
20829;DHT22;10575;50.124;8.582;2022-12-07T03:26:27;5.20;99.90
20829;DHT22;10575;50.124;8.582;2022-12-07T03:28:55;5.10;99.90
20829;DHT22;10575;50.124;8.582;2022-12-07T03:31:30;5.20;99.90
20829;DHT22;10575;50.124;8.582;2022-12-07T03:34:09;5.10;99.90
20829;DHT22;10575;50.124;8.582;2022-12-07T03:36:51;5.10;99.90
20829;DHT22;10575;50.124;8.582;2022-12-07T03:39:29;5.00;99.90
20829;DHT22;10575;50.124;8.582;2022-12-07T03:41:57;5.10;99.90
20829;DHT22;10575;50.124;8.582;2022-12-07T03:44:24;5.10;99.90
20829;DHT22;10575;50.124;8.582;2022-12-07T03:47:06;5.10;99.90
20829;DHT22;10575;50.124;8.582;2022-12-07T03:49:49;5.10;99.90
20829;DHT22;10575;50.124;8.582;2022-12-07T03:52:42;5.10;99.90
20829;DHT22;10575;50.124;8.582;2022-12-07T03:57:43;5.10;99.90
20829;DHT22;10575;50.124;8.582;2022-12-07T04:00:11;5.10;99.90
20829;DHT22;10575;50.124;8.582;2022-12-07T04:02:37;5.10;99.90
20829;DHT22;10575;50.124;8.582;2022-12-07T04:05:03;5.20;99.90
20829;DHT22;10575;50.124;8.582;2022-12-07T04:07:28;5.10;99.90
20829;DHT22;10575;50.124;8.582;2022-12-07T04:09:54;5.10;99.90
20829;DHT22;10575;50.124;8.582;2022-12-07T04:12:23;5.10;99.90
20829;DHT22;10575;50.124;8.582;2022-12-07T04:14:49;5.00;99.90
20829;DHT22;10575;50.124;8.582;2022-12-07T04:17:14;5.00;99.90
20829;DHT22;10575;50.124;8.582;2022-12-07T04:19:40;5.00;99.90
20829;DHT22;10575;50.124;8.582;2022-12-07T04:22:06;5.10;99.90
20829;DHT22;10575;50.124;8.582;2022-12-07T04:24:33;5.20;99.90
20829;DHT22;10575;50.124;8.582;2022-12-07T04:26:58;5.20;99.90
20829;DHT22;10575;50.124;8.582;2022-12-07T04:29:24;5.30;99.90
20829;DHT22;10575;50.124;8.582;2022-12-07T04:31:50;5.30;99.90
20829;DHT22;10575;50.124;8.582;2022-12-07T04:34:17;5.30;99.90
20829;DHT22;10575;50.124;8.582;2022-12-07T04:36:43;5.30;99.90
20829;DHT22;10575;50.124;8.582;2022-12-07T04:39:20;5.30;99.90
20829;DHT22;10575;50.124;8.582;2022-12-07T04:41:46;5.20;99.90
20829;DHT22;10575;50.124;8.582;2022-12-07T04:44:13;5.20;99.90
20829;DHT22;10575;50.124;8.582;2022-12-07T04:46:40;5.20;99.90
20829;DHT22;10575;50.124;8.582;2022-12-07T04:49:05;5.20;99.90
20829;DHT22;10575;50.124;8.582;2022-12-07T04:51:31;5.10;99.90
20829;DHT22;10575;50.124;8.582;2022-12-07T04:53:57;5.10;99.90
20829;DHT22;10575;50.124;8.582;2022-12-07T04:56:23;5.10;99.90
20829;DHT22;10575;50.124;8.582;2022-12-07T04:58:49;5.10;99.90
20829;DHT22;10575;50.124;8.582;2022-12-07T05:01:17;5.10;99.90
20829;DHT22;10575;50.124;8.582;2022-12-07T05:03:42;5.20;99.90
20829;DHT22;10575;50.124;8.582;2022-12-07T05:06:10;5.20;99.90
20829;DHT22;10575;50.124;8.582;2022-12-07T05:08:36;5.10;99.90
20829;DHT22;10575;50.124;8.582;2022-12-07T05:11:03;5.10;99.90
20829;DHT22;10575;50.124;8.582;2022-12-07T05:13:29;5.10;99.90
20829;DHT22;10575;50.124;8.582;2022-12-07T05:15:54;5.10;99.90
20829;DHT22;10575;50.124;8.582;2022-12-07T05:18:20;5.10;99.90
20829;DHT22;10575;50.124;8.582;2022-12-07T05:20:45;5.10;99.90
20829;DHT22;10575;50.124;8.582;2022-12-07T05:23:11;5.10;99.90
20829;DHT22;10575;50.124;8.582;2022-12-07T05:25:37;5.10;99.90
20829;DHT22;10575;50.124;8.582;2022-12-07T05:28:03;5.10;99.90
20829;DHT22;10575;50.124;8.582;2022-12-07T05:30:29;5.10;99.90
20829;DHT22;10575;50.124;8.582;2022-12-07T05:32:55;5.10;99.90
20829;DHT22;10575;50.124;8.582;2022-12-07T05:35:20;5.10;99.90
20829;DHT22;10575;50.124;8.582;2022-12-07T05:37:46;5.20;99.90
20829;DHT22;10575;50.124;8.582;2022-12-07T05:40:13;5.20;99.90
20829;DHT22;10575;50.124;8.582;2022-12-07T05:42:39;5.10;99.90
20829;DHT22;10575;50.124;8.582;2022-12-07T05:45:06;5.00;99.90
20829;DHT22;10575;50.124;8.582;2022-12-07T05:47:31;5.00;99.90
20829;DHT22;10575;50.124;8.582;2022-12-07T05:49:57;5.10;99.90
20829;DHT22;10575;50.124;8.582;2022-12-07T05:52:23;5.20;99.90
20829;DHT22;10575;50.124;8.582;2022-12-07T05:54:48;5.30;99.90
20829;DHT22;10575;50.124;8.582;2022-12-07T05:57:14;5.30;99.90
20829;DHT22;10575;50.124;8.582;2022-12-07T05:59:40;5.30;99.90
20829;DHT22;10575;50.124;8.582;2022-12-07T06:02:12;5.40;99.90
20829;DHT22;10575;50.124;8.582;2022-12-07T06:04:45;5.40;99.90
20829;DHT22;10575;50.124;8.582;2022-12-07T06:07:12;5.40;99.90
20829;DHT22;10575;50.124;8.582;2022-12-07T06:09:38;5.40;99.90
20829;DHT22;10575;50.124;8.582;2022-12-07T06:12:05;5.40;99.90
20829;DHT22;10575;50.124;8.582;2022-12-07T06:14:51;5.40;99.90
20829;DHT22;10575;50.124;8.582;2022-12-07T06:17:16;5.40;99.90
20829;DHT22;10575;50.124;8.582;2022-12-07T06:19:42;5.40;99.90
20829;DHT22;10575;50.124;8.582;2022-12-07T06:22:11;5.40;99.90
20829;DHT22;10575;50.124;8.582;2022-12-07T06:24:37;5.40;99.90
20829;DHT22;10575;50.124;8.582;2022-12-07T06:27:04;5.40;99.90
20829;DHT22;10575;50.124;8.582;2022-12-07T06:29:30;5.50;99.90
20829;DHT22;10575;50.124;8.582;2022-12-07T06:31:55;5.50;99.90
20829;DHT22;10575;50.124;8.582;2022-12-07T06:34:22;5.40;99.90
20829;DHT22;10575;50.124;8.582;2022-12-07T06:36:48;5.40;99.90
20829;DHT22;10575;50.124;8.582;2022-12-07T06:39:17;5.40;99.90
20829;DHT22;10575;50.124;8.582;2022-12-07T06:41:43;5.30;99.90
20829;DHT22;10575;50.124;8.582;2022-12-07T06:44:09;5.30;99.90
20829;DHT22;10575;50.124;8.582;2022-12-07T06:46:34;5.30;99.90
20829;DHT22;10575;50.124;8.582;2022-12-07T06:49:04;5.20;99.90
20829;DHT22;10575;50.124;8.582;2022-12-07T06:51:30;5.00;99.90
20829;DHT22;10575;50.124;8.582;2022-12-07T06:53:56;4.90;99.90
20829;DHT22;10575;50.124;8.582;2022-12-07T06:56:21;4.80;99.90
20829;DHT22;10575;50.124;8.582;2022-12-07T06:58:48;4.70;99.90
20829;DHT22;10575;50.124;8.582;2022-12-07T07:01:17;4.70;99.90
20829;DHT22;10575;50.124;8.582;2022-12-07T07:03:44;4.70;99.90
20829;DHT22;10575;50.124;8.582;2022-12-07T07:06:10;4.60;99.90
20829;DHT22;10575;50.124;8.582;2022-12-07T07:08:37;4.50;99.90
20829;DHT22;10575;50.124;8.582;2022-12-07T07:11:03;4.50;99.90
20829;DHT22;10575;50.124;8.582;2022-12-07T07:13:29;4.60;99.90
20829;DHT22;10575;50.124;8.582;2022-12-07T07:15:55;4.60;99.90
20829;DHT22;10575;50.124;8.582;2022-12-07T07:18:20;4.60;99.90
20829;DHT22;10575;50.124;8.582;2022-12-07T07:20:46;4.70;99.90
20829;DHT22;10575;50.124;8.582;2022-12-07T07:23:12;4.90;99.90
20829;DHT22;10575;50.124;8.582;2022-12-07T07:25:38;4.90;99.90
20829;DHT22;10575;50.124;8.582;2022-12-07T07:28:03;5.00;99.90
20829;DHT22;10575;50.124;8.582;2022-12-07T07:30:29;5.10;99.90
20829;DHT22;10575;50.124;8.582;2022-12-07T07:32:58;5.10;99.90
20829;DHT22;10575;50.124;8.582;2022-12-07T07:35:25;5.20;99.90
20829;DHT22;10575;50.124;8.582;2022-12-07T07:37:51;5.20;99.90
20829;DHT22;10575;50.124;8.582;2022-12-07T07:40:16;5.30;99.90
20829;DHT22;10575;50.124;8.582;2022-12-07T07:42:42;5.40;99.90
20829;DHT22;10575;50.124;8.582;2022-12-07T07:45:08;5.30;99.90
20829;DHT22;10575;50.124;8.582;2022-12-07T07:47:34;5.30;99.90
20829;DHT22;10575;50.124;8.582;2022-12-07T07:49:59;5.20;99.90
20829;DHT22;10575;50.124;8.582;2022-12-07T07:52:25;5.10;99.90
20829;DHT22;10575;50.124;8.582;2022-12-07T07:54:50;5.00;99.90
20829;DHT22;10575;50.124;8.582;2022-12-07T07:57:16;5.10;99.90
20829;DHT22;10575;50.124;8.582;2022-12-07T07:59:42;5.10;99.90
20829;DHT22;10575;50.124;8.582;2022-12-07T08:02:18;5.20;99.90
20829;DHT22;10575;50.124;8.582;2022-12-07T08:04:45;5.40;99.90
20829;DHT22;10575;50.124;8.582;2022-12-07T08:07:13;5.50;99.90
20829;DHT22;10575;50.124;8.582;2022-12-07T08:09:39;5.60;99.90
20829;DHT22;10575;50.124;8.582;2022-12-07T08:12:05;5.70;99.90
20829;DHT22;10575;50.124;8.582;2022-12-07T08:14:31;5.70;99.90
20829;DHT22;10575;50.124;8.582;2022-12-07T08:16:56;5.70;99.90
20829;DHT22;10575;50.124;8.582;2022-12-07T08:19:22;5.70;99.90
20829;DHT22;10575;50.124;8.582;2022-12-07T08:21:48;5.70;99.90
20829;DHT22;10575;50.124;8.582;2022-12-07T08:24:14;5.80;99.90
20829;DHT22;10575;50.124;8.582;2022-12-07T08:26:40;5.80;99.90
20829;DHT22;10575;50.124;8.582;2022-12-07T08:29:06;6.00;99.90
20829;DHT22;10575;50.124;8.582;2022-12-07T08:31:31;6.20;99.90
20829;DHT22;10575;50.124;8.582;2022-12-07T08:33:57;6.20;99.90
20829;DHT22;10575;50.124;8.582;2022-12-07T08:36:23;6.30;99.90
20829;DHT22;10575;50.124;8.582;2022-12-07T08:38:49;6.30;99.90
20829;DHT22;10575;50.124;8.582;2022-12-07T08:41:15;6.30;99.90
20829;DHT22;10575;50.124;8.582;2022-12-07T08:43:43;6.10;99.90
20829;DHT22;10575;50.124;8.582;2022-12-07T08:49:13;6.10;99.90
20829;DHT22;10575;50.124;8.582;2022-12-07T08:51:40;6.10;99.90
20829;DHT22;10575;50.124;8.582;2022-12-07T08:54:10;6.00;99.90
20829;DHT22;10575;50.124;8.582;2022-12-07T08:56:37;6.00;99.90
20829;DHT22;10575;50.124;8.582;2022-12-07T08:59:04;5.90;99.90
20829;DHT22;10575;50.124;8.582;2022-12-07T09:01:30;5.90;99.90
20829;DHT22;10575;50.124;8.582;2022-12-07T09:03:56;5.90;99.90
20829;DHT22;10575;50.124;8.582;2022-12-07T09:06:21;5.90;99.90
20829;DHT22;10575;50.124;8.582;2022-12-07T09:08:49;6.30;99.90
20829;DHT22;10575;50.124;8.582;2022-12-07T09:11:16;7.00;99.90
20829;DHT22;10575;50.124;8.582;2022-12-07T09:13:42;7.70;99.90
20829;DHT22;10575;50.124;8.582;2022-12-07T09:16:07;8.40;99.90
20829;DHT22;10575;50.124;8.582;2022-12-07T09:18:33;8.80;99.90
20829;DHT22;10575;50.124;8.582;2022-12-07T09:20:58;8.70;99.90
20829;DHT22;10575;50.124;8.582;2022-12-07T09:23:24;8.40;99.90
20829;DHT22;10575;50.124;8.582;2022-12-07T09:25:58;8.00;99.90
20829;DHT22;10575;50.124;8.582;2022-12-07T09:28:24;7.70;99.90
20829;DHT22;10575;50.124;8.582;2022-12-07T09:30:58;8.00;99.90
20829;DHT22;10575;50.124;8.582;2022-12-07T09:33:23;8.00;99.90
20829;DHT22;10575;50.124;8.582;2022-12-07T09:35:50;8.10;99.90
20829;DHT22;10575;50.124;8.582;2022-12-07T09:38:17;8.00;99.90
20829;DHT22;10575;50.124;8.582;2022-12-07T09:40:43;7.90;99.90
20829;DHT22;10575;50.124;8.582;2022-12-07T09:43:20;7.60;99.90
20829;DHT22;10575;50.124;8.582;2022-12-07T09:45:48;7.10;99.90
20829;DHT22;10575;50.124;8.582;2022-12-07T09:48:46;6.90;99.90
20829;DHT22;10575;50.124;8.582;2022-12-07T09:51:17;6.70;99.90
20829;DHT22;10575;50.124;8.582;2022-12-07T09:53:44;6.70;99.90
20829;DHT22;10575;50.124;8.582;2022-12-07T09:56:17;6.80;99.90
20829;DHT22;10575;50.124;8.582;2022-12-07T09:58:43;6.80;99.90
20829;DHT22;10575;50.124;8.582;2022-12-07T10:01:18;7.10;99.90
20829;DHT22;10575;50.124;8.582;2022-12-07T10:03:50;7.30;99.90
20829;DHT22;10575;50.124;8.582;2022-12-07T10:06:16;7.40;99.90
20829;DHT22;10575;50.124;8.582;2022-12-07T10:08:41;7.30;99.90
20829;DHT22;10575;50.124;8.582;2022-12-07T10:11:09;7.40;99.90
20829;DHT22;10575;50.124;8.582;2022-12-07T10:13:39;7.60;99.90
20829;DHT22;10575;50.124;8.582;2022-12-07T10:16:08;7.70;99.90
20829;DHT22;10575;50.124;8.582;2022-12-07T10:18:53;7.70;99.90
20829;DHT22;10575;50.124;8.582;2022-12-07T10:21:21;7.80;99.90
20829;DHT22;10575;50.124;8.582;2022-12-07T10:24:03;7.60;99.90
20829;DHT22;10575;50.124;8.582;2022-12-07T10:26:34;7.50;99.90
20829;DHT22;10575;50.124;8.582;2022-12-07T10:29:21;7.30;99.90
20829;DHT22;10575;50.124;8.582;2022-12-07T10:31:54;7.10;99.90
20829;DHT22;10575;50.124;8.582;2022-12-07T10:34:24;7.10;99.90
20829;DHT22;10575;50.124;8.582;2022-12-07T10:36:51;7.00;99.90
20829;DHT22;10575;50.124;8.582;2022-12-07T10:39:22;7.10;99.90
20829;DHT22;10575;50.124;8.582;2022-12-07T10:42:01;7.00;99.90
20829;DHT22;10575;50.124;8.582;2022-12-07T10:44:29;7.00;99.90
20829;DHT22;10575;50.124;8.582;2022-12-07T10:47:46;6.90;99.90
20829;DHT22;10575;50.124;8.582;2022-12-07T10:50:30;7.00;99.90
20829;DHT22;10575;50.124;8.582;2022-12-07T10:59:16;7.10;99.90
20829;DHT22;10575;50.124;8.582;2022-12-07T11:01:57;7.10;99.90
20829;DHT22;10575;50.124;8.582;2022-12-07T11:04:50;7.10;99.90
20829;DHT22;10575;50.124;8.582;2022-12-07T11:07:36;7.00;99.90
20829;DHT22;10575;50.124;8.582;2022-12-07T11:10:32;7.20;99.90
20829;DHT22;10575;50.124;8.582;2022-12-07T11:19:25;7.60;99.90
20829;DHT22;10575;50.124;8.582;2022-12-07T11:21:59;7.70;99.90
20829;DHT22;10575;50.124;8.582;2022-12-07T11:24:33;7.70;99.90
20829;DHT22;10575;50.124;8.582;2022-12-07T11:30:19;7.70;99.90
20829;DHT22;10575;50.124;8.582;2022-12-07T11:33:27;7.60;99.90
20829;DHT22;10575;50.124;8.582;2022-12-07T11:39:02;7.60;99.90
20829;DHT22;10575;50.124;8.582;2022-12-07T11:41:39;7.50;99.90
20829;DHT22;10575;50.124;8.582;2022-12-07T11:44:08;7.60;99.90
20829;DHT22;10575;50.124;8.582;2022-12-07T11:46:59;7.70;99.90
20829;DHT22;10575;50.124;8.582;2022-12-07T11:49:47;7.60;99.90
20829;DHT22;10575;50.124;8.582;2022-12-07T11:52:43;7.40;99.90
20829;DHT22;10575;50.124;8.582;2022-12-07T11:55:24;7.30;99.90
20829;DHT22;10575;50.124;8.582;2022-12-07T11:57:58;7.20;99.90
20829;DHT22;10575;50.124;8.582;2022-12-07T12:00:27;7.20;99.90
20829;DHT22;10575;50.124;8.582;2022-12-07T12:03:12;7.10;99.90
20829;DHT22;10575;50.124;8.582;2022-12-07T12:05:40;7.00;99.90
20829;DHT22;10575;50.124;8.582;2022-12-07T12:08:20;7.00;99.90
20829;DHT22;10575;50.124;8.582;2022-12-07T12:11:23;6.90;99.90
20829;DHT22;10575;50.124;8.582;2022-12-07T12:16:54;7.00;99.90
20829;DHT22;10575;50.124;8.582;2022-12-07T12:22:19;7.40;99.90
20829;DHT22;10575;50.124;8.582;2022-12-07T12:24:50;7.40;99.90
20829;DHT22;10575;50.124;8.582;2022-12-07T12:27:38;7.40;99.90
20829;DHT22;10575;50.124;8.582;2022-12-07T12:30:23;7.30;99.90
20829;DHT22;10575;50.124;8.582;2022-12-07T12:32:49;7.30;99.90
20829;DHT22;10575;50.124;8.582;2022-12-07T12:38:21;7.40;99.90
20829;DHT22;10575;50.124;8.582;2022-12-07T12:40:49;7.40;99.90
20829;DHT22;10575;50.124;8.582;2022-12-07T12:43:41;7.40;99.90
20829;DHT22;10575;50.124;8.582;2022-12-07T12:51:41;7.70;99.90
20829;DHT22;10575;50.124;8.582;2022-12-07T12:54:28;7.70;99.90
20829;DHT22;10575;50.124;8.582;2022-12-07T12:57:13;7.60;99.90
20829;DHT22;10575;50.124;8.582;2022-12-07T12:59:56;7.70;99.90
20829;DHT22;10575;50.124;8.582;2022-12-07T13:07:49;7.70;99.90
20829;DHT22;10575;50.124;8.582;2022-12-07T13:20:48;7.40;99.90
20829;DHT22;10575;50.124;8.582;2022-12-07T13:23:18;7.20;99.90
20829;DHT22;10575;50.124;8.582;2022-12-07T13:28:33;7.00;99.90
20829;DHT22;10575;50.124;8.582;2022-12-07T13:33:36;6.80;99.90
20829;DHT22;10575;50.124;8.582;2022-12-07T13:36:02;6.80;99.90
20829;DHT22;10575;50.124;8.582;2022-12-07T13:38:33;6.80;99.90
20829;DHT22;10575;50.124;8.582;2022-12-07T13:41:17;6.70;99.90
20829;DHT22;10575;50.124;8.582;2022-12-07T13:43:53;6.70;99.90
20829;DHT22;10575;50.124;8.582;2022-12-07T13:46:24;6.70;99.90
20829;DHT22;10575;50.124;8.582;2022-12-07T13:48:51;6.70;99.90
20829;DHT22;10575;50.124;8.582;2022-12-07T13:51:22;6.70;99.90
20829;DHT22;10575;50.124;8.582;2022-12-07T13:53:54;6.90;99.90
20829;DHT22;10575;50.124;8.582;2022-12-07T13:56:22;7.00;99.90
20829;DHT22;10575;50.124;8.582;2022-12-07T13:58:51;7.00;99.90
20829;DHT22;10575;50.124;8.582;2022-12-07T14:01:16;7.00;99.90
20829;DHT22;10575;50.124;8.582;2022-12-07T14:03:42;7.00;99.90
20829;DHT22;10575;50.124;8.582;2022-12-07T14:06:15;6.80;99.90
20829;DHT22;10575;50.124;8.582;2022-12-07T14:08:41;6.60;99.90
20829;DHT22;10575;50.124;8.582;2022-12-07T14:11:12;6.60;99.90
20829;DHT22;10575;50.124;8.582;2022-12-07T14:13:58;6.70;99.90
20829;DHT22;10575;50.124;8.582;2022-12-07T14:16:33;6.70;99.90
20829;DHT22;10575;50.124;8.582;2022-12-07T14:19:05;6.70;99.90
20829;DHT22;10575;50.124;8.582;2022-12-07T14:21:33;6.70;99.90
20829;DHT22;10575;50.124;8.582;2022-12-07T14:24:09;6.70;99.90
20829;DHT22;10575;50.124;8.582;2022-12-07T14:26:35;6.70;99.90
20829;DHT22;10575;50.124;8.582;2022-12-07T14:31:52;6.50;99.90
20829;DHT22;10575;50.124;8.582;2022-12-07T14:34:20;6.50;99.90
20829;DHT22;10575;50.124;8.582;2022-12-07T14:36:46;6.50;99.90
20829;DHT22;10575;50.124;8.582;2022-12-07T14:39:11;6.50;99.90
20829;DHT22;10575;50.124;8.582;2022-12-07T14:41:37;6.40;99.90
20829;DHT22;10575;50.124;8.582;2022-12-07T14:44:22;6.40;99.90
20829;DHT22;10575;50.124;8.582;2022-12-07T14:46:49;6.20;99.90
20829;DHT22;10575;50.124;8.582;2022-12-07T14:49:15;6.10;99.90
20829;DHT22;10575;50.124;8.582;2022-12-07T14:51:41;6.10;99.90
20829;DHT22;10575;50.124;8.582;2022-12-07T14:54:15;6.00;99.90
20829;DHT22;10575;50.124;8.582;2022-12-07T14:56:41;5.90;99.90
20829;DHT22;10575;50.124;8.582;2022-12-07T14:59:09;5.80;99.90
20829;DHT22;10575;50.124;8.582;2022-12-07T15:01:35;5.80;99.90
20829;DHT22;10575;50.124;8.582;2022-12-07T15:04:00;5.80;99.90
20829;DHT22;10575;50.124;8.582;2022-12-07T15:06:25;5.80;99.90
20829;DHT22;10575;50.124;8.582;2022-12-07T15:08:51;5.80;99.90
20829;DHT22;10575;50.124;8.582;2022-12-07T15:11:17;5.70;99.90
20829;DHT22;10575;50.124;8.582;2022-12-07T15:13:43;5.70;99.90
20829;DHT22;10575;50.124;8.582;2022-12-07T15:16:28;5.70;99.90
20829;DHT22;10575;50.124;8.582;2022-12-07T15:18:53;5.60;99.90
20829;DHT22;10575;50.124;8.582;2022-12-07T15:21:19;5.70;99.90
20829;DHT22;10575;50.124;8.582;2022-12-07T15:23:46;5.70;99.90
20829;DHT22;10575;50.124;8.582;2022-12-07T15:26:12;5.70;99.90
20829;DHT22;10575;50.124;8.582;2022-12-07T15:28:37;5.80;99.90
20829;DHT22;10575;50.124;8.582;2022-12-07T15:31:03;5.80;99.90
20829;DHT22;10575;50.124;8.582;2022-12-07T15:33:29;5.80;99.90
20829;DHT22;10575;50.124;8.582;2022-12-07T15:35:54;5.90;99.90
20829;DHT22;10575;50.124;8.582;2022-12-07T15:38:20;6.00;99.90
20829;DHT22;10575;50.124;8.582;2022-12-07T15:40:48;6.00;99.90
20829;DHT22;10575;50.124;8.582;2022-12-07T15:43:14;6.00;99.90
20829;DHT22;10575;50.124;8.582;2022-12-07T15:45:58;5.90;99.90
20829;DHT22;10575;50.124;8.582;2022-12-07T15:48:24;5.80;99.90
20829;DHT22;10575;50.124;8.582;2022-12-07T15:50:50;5.80;99.90
20829;DHT22;10575;50.124;8.582;2022-12-07T15:53:15;5.70;99.90
20829;DHT22;10575;50.124;8.582;2022-12-07T15:55:41;5.70;99.90
20829;DHT22;10575;50.124;8.582;2022-12-07T15:58:06;5.60;99.90
20829;DHT22;10575;50.124;8.582;2022-12-07T16:00:32;5.60;99.90
20829;DHT22;10575;50.124;8.582;2022-12-07T16:02:58;5.60;99.90
20829;DHT22;10575;50.124;8.582;2022-12-07T16:05:23;5.50;99.90
20829;DHT22;10575;50.124;8.582;2022-12-07T16:07:49;5.50;99.90
20829;DHT22;10575;50.124;8.582;2022-12-07T16:10:16;5.40;99.90
20829;DHT22;10575;50.124;8.582;2022-12-07T16:12:42;5.40;99.90
20829;DHT22;10575;50.124;8.582;2022-12-07T16:15:08;5.50;99.90
20829;DHT22;10575;50.124;8.582;2022-12-07T16:17:33;5.60;99.90
20829;DHT22;10575;50.124;8.582;2022-12-07T16:19:59;5.60;99.90
20829;DHT22;10575;50.124;8.582;2022-12-07T16:22:25;5.60;99.90
20829;DHT22;10575;50.124;8.582;2022-12-07T16:24:50;5.50;99.90
20829;DHT22;10575;50.124;8.582;2022-12-07T16:27:16;5.50;99.90
20829;DHT22;10575;50.124;8.582;2022-12-07T16:29:41;5.50;99.90
20829;DHT22;10575;50.124;8.582;2022-12-07T16:32:07;5.40;99.90
20829;DHT22;10575;50.124;8.582;2022-12-07T16:34:33;5.40;99.90
20829;DHT22;10575;50.124;8.582;2022-12-07T16:36:58;5.40;99.90
20829;DHT22;10575;50.124;8.582;2022-12-07T16:39:24;5.40;99.90
20829;DHT22;10575;50.124;8.582;2022-12-07T16:41:50;5.40;99.90
20829;DHT22;10575;50.124;8.582;2022-12-07T16:44:16;5.50;99.90
20829;DHT22;10575;50.124;8.582;2022-12-07T16:46:42;5.50;99.90
20829;DHT22;10575;50.124;8.582;2022-12-07T16:49:15;5.40;99.90
20829;DHT22;10575;50.124;8.582;2022-12-07T16:51:41;5.40;99.90
20829;DHT22;10575;50.124;8.582;2022-12-07T16:54:11;5.40;99.90
20829;DHT22;10575;50.124;8.582;2022-12-07T16:56:37;5.30;99.90
20829;DHT22;10575;50.124;8.582;2022-12-07T16:59:03;5.30;99.90
20829;DHT22;10575;50.124;8.582;2022-12-07T17:01:29;5.10;99.90
20829;DHT22;10575;50.124;8.582;2022-12-07T17:03:56;4.90;99.90
20829;DHT22;10575;50.124;8.582;2022-12-07T17:06:24;4.90;99.90
20829;DHT22;10575;50.124;8.582;2022-12-07T17:08:51;5.10;99.90
20829;DHT22;10575;50.124;8.582;2022-12-07T17:11:19;5.10;99.90
20829;DHT22;10575;50.124;8.582;2022-12-07T17:13:45;5.10;99.90
20829;DHT22;10575;50.124;8.582;2022-12-07T17:16:30;5.00;99.90
20829;DHT22;10575;50.124;8.582;2022-12-07T17:18:57;5.10;99.90